<<    August 2012    >>
Datum    Temp.       Tempmin      Tempmax    Taup.       Taup.min      Taup.max    Feuchte    Feuchtemin    Feuchtemax    Druck    Druckmin    Druckmax    Regen    Wind    Benmax  
  01.08.2012  22,4    14,0    06:00    31,0    16:51  12,8    10,7    17:02    15,9    11:00  59,4    29    17:02    91    06:53  1012,7    1007    18:05    1018    00:05  0,0  2,1  20,9  
  02.08.2012  22,2    17,8    23:58    24,7    11:59  13,9    11,2    18:51    17,2    08:41  60,3    47    18:13    79    07:53  1011,2    1006    01:35    1015    18:35  0,0  2,1  15,8  
  03.08.2012  20,3    15,4    06:12    26,1    15:52  12,3    9,2    19:06    15,1    08:51  63,1    37    15:40    90    06:58  1014,9    1013    18:06    1016    05:50  0,0  1,7  16,6  
  04.08.2012  20,1    16,3    06:37    26,4    13:25  14,2    10,0    15:04    19,3    20:22  71,6    37    13:39    98    19:54  1012,9    1009    20:34    1015    00:00  4,6  1,1  14,0  
  05.08.2012  19,0    16,5    01:27    25,2    14:39  17,3    15,2    15:37    20,5    11:58  90,9    58    14:49    98    00:00  1008,5    1005    20:34    1010    00:00  4,8  0,9  13,0  
  06.08.2012  18,7    15,6    07:25    22,9    15:42  13,8    9,4    18:32    17,2    00:00  76,0    44    16:33    98    00:00  1010,4    1007    00:00    1015    23:59  0,0  2,7  17,6  
  07.08.2012  17,8    14,5    06:11    21,1    16:49  10,6    8,5    14:05    12,8    08:43  63,9    46    16:51    83    07:54  1019,8    1015    00:00    1023    21:33  0,0  2,8  16,2  
  08.08.2012  17,4    11,4    06:23    22,5    15:22  11,5    9,4    02:06    14,3    23:32  69,9    50    12:34    91    06:58  1023,3    1022    18:49    1024    06:18  0,0  1,4  13,0  
  09.08.2012  19,2    16,0    01:16    24,1    17:12  13,5    8,7    19:28    16,6    08:15  72,0    40    17:19    96    07:34  1023,7    1022    04:04    1027    23:59  0,0  2,5  15,8  
  10.08.2012  17,2    11,1    06:11    23,0    16:13  8,9    6,2    15:50    12,2    08:49  61,0    35    15:50    91    07:18  1025,8    1023    19:03    1027    00:00  0,0  2,5  15,8  
  11.08.2012  17,7    10,7    06:04    24,3    17:42  9,5    8,2    17:52    11,9    08:58  61,7    37    17:11    91    07:11  1022,1    1017    19:47    1026    00:00  0,0  1,5  11,5  
  12.08.2012  20,2    13,8    06:16    26,5    16:51  8,1    6,0    12:33    10,2    09:20  48,5    30    16:10    73    06:40  1015,7    1013    23:59    1018    00:00  0,0  1,9  16,6  
  13.08.2012  21,8    16,2    06:28    29,0    16:17  10,3    7,6    00:16    15,6    23:07  49,5    30    15:46    71    23:49  1013,0    1011    16:47    1014    00:47  0,0  1,5  11,5  
  14.08.2012  22,2    18,1    07:07    29,7    15:10  14,6    11,7    06:45    18,0    23:24  64,3    34    15:06    93    23:45  1012,1    1011    00:32    1014    20:17  0,0  1,2  14,0  
  15.08.2012  24,6    18,4    05:58    32,7    15:58  15,1    10,9    17:47    19,1    07:58  62,1    28    15:29    98    04:56  1009,2    1007    13:01    1013    00:00  0,0  1,9  20,2  
  16.08.2012  21,5    17,3    06:37    27,5    16:41  14,2    8,5    19:33    19,7    00:31  68,8    31    17:19    98    00:51  1016,3    1010    00:00    1019    14:01  8,5  1,4  15,1  
  17.08.2012  22,4    16,8    03:52    30,1    17:09  12,7    9,4    18:59    14,8    11:26  58,0    29    17:09    82    04:02  1018,6    1017    18:50    1020    08:47  0,0  1,1  10,4  
  18.08.2012  26,6    19,5    06:19    35,4    16:43  13,5    11,9    18:09    15,2    11:45  47,3    25    17:27    69    07:06  1016,5    1014    17:49    1018    00:00  0,0  2,1  18,0  
  19.08.2012  29,4    22,2    06:27    38,4    16:15  16,1    12,7    17:24    18,8    23:52  47,6    22    17:24    66    04:41  1014,3    1011    18:49    1017    00:34  0,0  1,7  17,6  
  20.08.2012  25,6    21,4    23:56    30,4    13:41  18,4    15,0    15:54    20,4    06:21  65,8    44    13:43    81    23:59  1016,4    1012    00:00    1019    14:04  0,0  1,6  15,5  
  21.08.2012  24,4    20,4    01:28    29,7    15:33  18,0    15,6    18:58    20,2    10:45  69,9    45    17:59    91    06:34  1014,9    1011    17:19    1019    02:19  0,0  1,4  11,9  
  22.08.2012  20,6    16,1    23:59    25,4    15:47  11,5    7,1    17:45    16,8    00:00  58,0    33    17:09    79    03:56  1016,0    1011    00:04    1018    09:34  0,0  3,2  17,6  
  23.08.2012  18,9    12,5    06:34    25,8    17:09  8,2    4,6    20:46    11,7    08:37  54,2    28    15:30    85    06:49  1015,7    1010    23:59    1019    07:50  0,0  1,4  13,7  
  24.08.2012  19,4    15,1    06:26    24,9    15:08  13,2    9,8    00:03    17,1    22:18  70,4    41    15:12    98    23:05  1006,9    1004    21:48    1011    00:03  8,5  1,1  20,2  
  25.08.2012  19,4    15,4    06:25    25,2    15:51  14,2    9,6    19:34    19,1    11:10  75,6    42    15:57    98    00:00  1005,9    1005    02:48    1007    00:00  1,2  2,3  15,8  
  26.08.2012  16,9    14,4    23:59    18,4    17:25  13,8    10,6    03:43    17,1    15:59  82,9    66    00:00    97    08:44  1011,9    1007    00:00    1020    23:29  1,8  3,9  19,1  
  27.08.2012  18,1    11,6    04:55    24,9    17:29  11,7    8,2    18:17    15,5    10:44  71,4    37    17:30    98    02:11  1019,0    1015    19:14    1022    08:01  0,0  1,4  14,0  
  28.08.2012  20,5    16,9    23:59    25,7    16:43  11,5    10,2    02:35    13,9    22:57  57,4    40    12:41    81    23:59  1015,3    1013    05:59    1019    22:20  0,9  1,9  13,7  
  29.08.2012  21,4    16,1    05:14    28,8    17:00  13,9    10,8    17:03    17,3    11:16  65,8    33    17:01    89    06:26  1015,8    1013    23:59    1018    00:00  0,0  1,5  12,2  
  30.08.2012  19,1    15,6    07:10    24,1    17:15  11,1    5,9    19:12    14,5    00:41  62,4    33    17:23    84    07:55  1015,7    1013    00:00    1017    08:49  0,0  1,7  16,6  
  31.08.2012  14,4    11,7    20:47    17,3    13:49  12,3    9,1    23:01    15,8    13:39  87,5    65    00:01    98    09:38  1018,9    1016    00:00    1024    20:04  5,8  3,6  23,8  
 
  Gesamt  20,6  10,7            38,4            12,9  4,6            20,5            65,1  22            98            1015,3  1004            1027            35,9  1,9  23,8  
 
  Mittelwert  20,6  15,8            26,5            12,9  9,7            16,3            65,1  38,6            88,2            1015,3  1011,9            1018,1            1,2  1,9  15,7  
  Minimum  14,4  10,7            17,3            8,1  4,6            10,2            47,3  22,0            66,0            1005,9  1004,0            1007,0            0,0  0,9  10,4  
  Maximum  29,4  22,2            38,4            18,4  15,6            20,5            90,9  66,0            98,0            1025,8  1023,0            1027,0            8,5  3,9  23,8  

  Heie Tage    Tmax >=30C     6  
  Sommertage    Tmax >=25C     19  
  Warme Tage    Tmax >=20C     29  
  Kalte Tage    Tmax  <10C     0  
  Frosttage    Tmin  <0C     0  
  Eistage    Tmax  <0C     0  
  Regentage > 0 mm    8  
  Regentage > 2 mm    5  
  Regentage > 10 mm    0  
  Regentage > 20 mm    0